BIENTÔT MET'MAP
version 2.0 !

Prévue avant fin octobre,
la nouvelle version sera
plus belle, plus complète
et hébergée sur un serveur
3 fois plus puissant...
et toujours gratuite !


Pas compatible ?
Essayez la version Mobile !

SE CONNECTER : | S'inscrire | Disclaimer | Découvrir Orbifly |
Code OACI :

TAF - EDFM Mannheim-City Airport - 25 Feb 2020 17:19 UTC
Data Sources :     NOAA   


- Altitude de l'aérodrome : 308 ft
- Code IATA : MHG
- Pas de NOTAMs connus.


EDFM - Mannheim-City Airport

Dernier METAR connu : 2015/08/11 07:50 EDFM 110750Z 34004KT 290V050 CAVOK 22/16 Q1017
TAF TAF EDFM
Valide du 25 à 15h jusqu'au 25 à 21h UTC


251400Z 2515/2521 23010KT 9999 BKN025
PROB40
TEMPO 2515/2518 24015G25KT
PROB30
TEMPO 2518/2521 24015G30KT 4000 SHRA BKN020CB

Source NOAA


MET'MAP, la Météo Aéronautique d'un coup d'oeil ! - Copyright ORBIFLY Décembre 2007

Développement & Programmation : Alexandra Zaïnal
Co-Développement : Marc-Olivier Méhu
Soutien technique & logistique : Manuel Goepfert
Conception & Financement : Baudouin d'Aumeries